sensor_id;sensor_type;location;lat;lon;timestamp;pressure;altitude;pressure_sealevel;temperature;humidity
70921;BME280;58572;48.110;19.838;2023-01-30T00:00:06;98162.66;;;-1.16;70.25
70921;BME280;58572;48.110;19.838;2023-01-30T00:02:34;98158.56;;;-1.19;70.67
70921;BME280;58572;48.110;19.838;2023-01-30T00:05:02;98162.47;;;-1.08;69.96
70921;BME280;58572;48.110;19.838;2023-01-30T00:07:29;98155.50;;;-1.09;69.93
70921;BME280;58572;48.110;19.838;2023-01-30T00:09:56;98144.16;;;-1.38;70.92
70921;BME280;58572;48.110;19.838;2023-01-30T00:12:23;98142.28;;;-1.37;70.76
70921;BME280;58572;48.110;19.838;2023-01-30T00:14:50;98144.66;;;-1.01;69.79
70921;BME280;58572;48.110;19.838;2023-01-30T00:17:17;98147.63;;;-1.44;70.62
70921;BME280;58572;48.110;19.838;2023-01-30T00:19:45;98032.22;;;-1.99;70.39
70921;BME280;58572;48.110;19.838;2023-01-30T00:22:12;98146.44;;;-1.15;70.41
70921;BME280;58572;48.110;19.838;2023-01-30T00:24:39;98142.34;;;-1.17;70.30
70921;BME280;58572;48.110;19.838;2023-01-30T00:27:06;98144.59;;;-1.21;70.10
70921;BME280;58572;48.110;19.838;2023-01-30T00:29:33;98134.50;;;-1.39;71.25
70921;BME280;58572;48.110;19.838;2023-01-30T00:32:00;98139.41;;;-1.42;70.67
70921;BME280;58572;48.110;19.838;2023-01-30T00:34:27;98144.94;;;-1.44;70.79
70921;BME280;58572;48.110;19.838;2023-01-30T00:36:56;98144.09;;;-1.51;71.01
70921;BME280;58572;48.110;19.838;2023-01-30T00:39:23;98139.78;;;-1.52;70.78
70921;BME280;58572;48.110;19.838;2023-01-30T00:41:50;98157.19;;;-2.04;72.23
70921;BME280;58572;48.110;19.838;2023-01-30T00:44:34;98143.44;;;-1.66;71.54
70921;BME280;58572;48.110;19.838;2023-01-30T00:47:19;98128.72;;;-1.49;70.71
70921;BME280;58572;48.110;19.838;2023-01-30T00:49:46;98137.53;;;-1.55;70.56
70921;BME280;58572;48.110;19.838;2023-01-30T00:52:14;98134.03;;;-1.62;71.20
70921;BME280;58572;48.110;19.838;2023-01-30T00:54:41;98127.47;;;-1.59;71.18
70921;BME280;58572;48.110;19.838;2023-01-30T00:57:09;98125.78;;;-1.74;71.26
70921;BME280;58572;48.110;19.838;2023-01-30T00:59:36;98130.72;;;-1.71;71.42
70921;BME280;58572;48.110;19.838;2023-01-30T01:02:03;98128.72;;;-1.49;70.65
70921;BME280;58572;48.110;19.838;2023-01-30T01:04:30;98124.38;;;-1.63;69.81
70921;BME280;58572;48.110;19.838;2023-01-30T01:07:07;98121.53;;;-1.55;70.49
70921;BME280;58572;48.110;19.838;2023-01-30T01:09:36;98161.09;;;-1.58;70.63
70921;BME280;58572;48.110;19.838;2023-01-30T01:12:03;98127.22;;;-1.71;70.29
70921;BME280;58572;48.110;19.838;2023-01-30T01:14:31;98045.56;;;-2.40;70.93
70921;BME280;58572;48.110;19.838;2023-01-30T01:16:58;98117.13;;;-1.82;71.02
70921;BME280;58572;48.110;19.838;2023-01-30T01:19:25;98105.22;;;-1.86;71.53
70921;BME280;58572;48.110;19.838;2023-01-30T01:21:53;98087.22;;;-1.78;71.19
70921;BME280;58572;48.110;19.838;2023-01-30T01:24:20;98102.41;;;-1.78;70.44
70921;BME280;58572;48.110;19.838;2023-01-30T01:26:49;98100.56;;;-1.78;71.31
70921;BME280;58572;48.110;19.838;2023-01-30T01:29:16;98111.41;;;-1.79;70.04
70921;BME280;58572;48.110;19.838;2023-01-30T01:31:43;98117.09;;;-1.89;71.29
70921;BME280;58572;48.110;19.838;2023-01-30T01:34:10;98115.03;;;-1.94;71.62
70921;BME280;58572;48.110;19.838;2023-01-30T01:36:38;98108.94;;;-1.81;70.86
70921;BME280;58572;48.110;19.838;2023-01-30T01:39:05;98099.75;;;-1.72;69.51
70921;BME280;58572;48.110;19.838;2023-01-30T01:41:32;98097.16;;;-2.06;71.56
70921;BME280;58572;48.110;19.838;2023-01-30T01:44:02;98045.44;;;-2.18;70.59
70921;BME280;58572;48.110;19.838;2023-01-30T01:46:32;98083.47;;;-1.97;71.17
70921;BME280;58572;48.110;19.838;2023-01-30T01:49:02;97995.53;;;-2.51;71.18
70921;BME280;58572;48.110;19.838;2023-01-30T01:51:34;98065.50;;;-2.22;71.31
70921;BME280;58572;48.110;19.838;2023-01-30T01:54:06;98065.00;;;-2.05;70.90
70921;BME280;58572;48.110;19.838;2023-01-30T01:56:37;98049.63;;;-2.03;70.70
70921;BME280;58572;48.110;19.838;2023-01-30T01:59:09;98038.59;;;-2.00;70.96
70921;BME280;58572;48.110;19.838;2023-01-30T02:01:39;97880.44;;;-3.98;70.61
70921;BME280;58572;48.110;19.838;2023-01-30T02:04:08;98040.00;;;-2.04;71.29
70921;BME280;58572;48.110;19.838;2023-01-30T02:06:38;98034.00;;;-2.12;71.53
70921;BME280;58572;48.110;19.838;2023-01-30T02:09:08;98032.56;;;-2.15;66.41
70921;BME280;58572;48.110;19.838;2023-01-30T02:11:40;98028.59;;;-2.32;72.03
70921;BME280;58572;48.110;19.838;2023-01-30T02:14:12;98034.53;;;-2.30;71.51
70921;BME280;58572;48.110;19.838;2023-01-30T02:16:41;97924.16;;;-2.82;70.57
70921;BME280;58572;48.110;19.838;2023-01-30T02:19:28;98026.34;;;-1.74;68.95
70921;BME280;58572;48.110;19.838;2023-01-30T02:22:35;98000.19;;;-2.12;70.91
70921;BME280;58572;48.110;19.838;2023-01-30T02:25:17;97963.13;;;-2.68;72.06
70921;BME280;58572;48.110;19.838;2023-01-30T02:28:19;97996.47;;;-2.24;71.87
70921;BME280;58572;48.110;19.838;2023-01-30T02:31:22;97982.84;;;-2.08;71.16
70921;BME280;58572;48.110;19.838;2023-01-30T02:34:02;97994.31;;;-2.48;72.15
70921;BME280;58572;48.110;19.838;2023-01-30T02:36:40;98000.59;;;-2.15;70.20
70921;BME280;58572;48.110;19.838;2023-01-30T02:39:18;97993.91;;;-1.98;68.88
70921;BME280;58572;48.110;19.838;2023-01-30T02:41:56;97862.72;;;-3.00;70.51
70921;BME280;58572;48.110;19.838;2023-01-30T02:44:31;97984.59;;;-2.21;70.43
70921;BME280;58572;48.110;19.838;2023-01-30T02:47:05;97930.50;;;-2.83;71.42
70921;BME280;58572;48.110;19.838;2023-01-30T02:49:37;97939.00;;;-3.29;73.68
70921;BME280;58572;48.110;19.838;2023-01-30T02:52:08;97968.31;;;-2.53;72.13
70921;BME280;58572;48.110;19.838;2023-01-30T02:54:37;97962.38;;;-2.48;70.88
70921;BME280;58572;48.110;19.838;2023-01-30T02:57:16;97968.53;;;-2.48;71.79
70921;BME280;58572;48.110;19.838;2023-01-30T02:59:47;97970.44;;;-2.29;71.14
70921;BME280;58572;48.110;19.838;2023-01-30T03:02:39;97961.81;;;-3.13;72.63
70921;BME280;58572;48.110;19.838;2023-01-30T03:08:06;97961.00;;;-2.31;71.09
70921;BME280;58572;48.110;19.838;2023-01-30T03:10:41;97956.22;;;-2.55;70.56
70921;BME280;58572;48.110;19.838;2023-01-30T03:13:13;97952.03;;;-2.17;69.36
70921;BME280;58572;48.110;19.838;2023-01-30T03:15:49;97949.25;;;-2.57;71.94
70921;BME280;58572;48.110;19.838;2023-01-30T03:18:18;97830.69;;;-3.20;71.04
70921;BME280;58572;48.110;19.838;2023-01-30T03:20:46;97943.53;;;-2.53;71.43
70921;BME280;58572;48.110;19.838;2023-01-30T03:23:13;97945.16;;;-2.52;71.68
70921;BME280;58572;48.110;19.838;2023-01-30T03:25:42;97933.06;;;-3.03;68.89
70921;BME280;58572;48.110;19.838;2023-01-30T03:28:12;97935.69;;;-2.68;72.41
70921;BME280;58572;48.110;19.838;2023-01-30T03:30:40;97939.84;;;-2.52;71.62
70921;BME280;58572;48.110;19.838;2023-01-30T03:33:07;97935.84;;;-2.29;70.30
70921;BME280;58572;48.110;19.838;2023-01-30T03:35:35;97940.66;;;-2.59;71.79
70921;BME280;58572;48.110;19.838;2023-01-30T03:38:02;97945.84;;;-2.85;71.16
70921;BME280;58572;48.110;19.838;2023-01-30T03:40:30;97941.13;;;-2.42;68.77
70921;BME280;58572;48.110;19.838;2023-01-30T03:42:57;97929.94;;;-2.72;70.90
70921;BME280;58572;48.110;19.838;2023-01-30T03:45:24;97937.38;;;-2.54;71.48
70921;BME280;58572;48.110;19.838;2023-01-30T03:47:51;97933.91;;;-2.54;71.23
70921;BME280;58572;48.110;19.838;2023-01-30T03:50:18;97865.50;;;-3.77;72.56
70921;BME280;58572;48.110;19.838;2023-01-30T03:52:46;97924.66;;;-2.65;71.04
70921;BME280;58572;48.110;19.838;2023-01-30T03:55:14;97927.56;;;-2.53;71.13
70921;BME280;58572;48.110;19.838;2023-01-30T03:57:41;97926.53;;;-2.52;70.12
70921;BME280;58572;48.110;19.838;2023-01-30T04:00:09;97914.34;;;-2.81;70.43
70921;BME280;58572;48.110;19.838;2023-01-30T04:02:35;97917.59;;;-3.76;72.81
70921;BME280;58572;48.110;19.838;2023-01-30T04:05:03;97907.06;;;-3.07;71.80
70921;BME280;58572;48.110;19.838;2023-01-30T04:07:31;97879.16;;;-3.53;71.91
70921;BME280;58572;48.110;19.838;2023-01-30T04:09:59;97864.91;;;-3.45;72.62
70921;BME280;58572;48.110;19.838;2023-01-30T04:12:26;97775.03;;;-3.69;71.57
70921;BME280;58572;48.110;19.838;2023-01-30T04:14:53;97894.72;;;-2.80;72.17
70921;BME280;58572;48.110;19.838;2023-01-30T04:17:20;97899.28;;;-3.37;70.86
70921;BME280;58572;48.110;19.838;2023-01-30T04:19:47;97909.91;;;-3.37;70.14
70921;BME280;58572;48.110;19.838;2023-01-30T04:22:14;97899.22;;;-2.81;70.94
70921;BME280;58572;48.110;19.838;2023-01-30T04:24:42;97895.13;;;-2.77;71.52
70921;BME280;58572;48.110;19.838;2023-01-30T04:27:10;97899.00;;;-2.79;71.34
70921;BME280;58572;48.110;19.838;2023-01-30T04:29:37;97897.84;;;-3.11;71.90
70921;BME280;58572;48.110;19.838;2023-01-30T04:32:04;97892.94;;;-3.08;72.24
70921;BME280;58572;48.110;19.838;2023-01-30T04:34:31;97883.19;;;-2.94;71.55
70921;BME280;58572;48.110;19.838;2023-01-30T04:36:58;97844.97;;;-2.86;70.63
70921;BME280;58572;48.110;19.838;2023-01-30T04:39:26;97874.66;;;-2.83;71.04
70921;BME280;58572;48.110;19.838;2023-01-30T04:41:53;97880.38;;;-2.86;71.74
70921;BME280;58572;48.110;19.838;2023-01-30T04:44:21;97878.31;;;-2.84;70.74
70921;BME280;58572;48.110;19.838;2023-01-30T04:46:48;97870.59;;;-2.72;71.46
70921;BME280;58572;48.110;19.838;2023-01-30T04:49:15;97871.41;;;-2.78;71.62
70921;BME280;58572;48.110;19.838;2023-01-30T04:51:42;97864.63;;;-2.81;71.85
70921;BME280;58572;48.110;19.838;2023-01-30T04:54:09;97858.38;;;-2.53;69.19
70921;BME280;58572;48.110;19.838;2023-01-30T04:56:36;97865.16;;;-3.05;71.20
70921;BME280;58572;48.110;19.838;2023-01-30T04:59:03;97857.31;;;-3.13;72.73
70921;BME280;58572;48.110;19.838;2023-01-30T05:01:34;97859.03;;;-2.99;71.07
70921;BME280;58572;48.110;19.838;2023-01-30T05:04:02;97869.03;;;-3.36;72.53
70921;BME280;58572;48.110;19.838;2023-01-30T05:06:31;97860.41;;;-2.55;71.55
70921;BME280;58572;48.110;19.838;2023-01-30T05:08:58;97846.84;;;-2.80;70.37
70921;BME280;58572;48.110;19.838;2023-01-30T05:11:27;97861.34;;;-2.83;71.47
70921;BME280;58572;48.110;19.838;2023-01-30T05:13:55;97856.22;;;-2.91;72.30
70921;BME280;58572;48.110;19.838;2023-01-30T05:16:23;97851.59;;;-2.63;70.84
70921;BME280;58572;48.110;19.838;2023-01-30T05:18:51;97785.84;;;-2.88;70.17
70921;BME280;58572;48.110;19.838;2023-01-30T05:21:20;97860.22;;;-2.47;69.74
70921;BME280;58572;48.110;19.838;2023-01-30T05:23:49;97859.97;;;-2.66;70.49
70921;BME280;58572;48.110;19.838;2023-01-30T05:26:16;97857.09;;;-2.71;70.68
70921;BME280;58572;48.110;19.838;2023-01-30T05:28:43;97773.19;;;-3.28;70.98
70921;BME280;58572;48.110;19.838;2023-01-30T05:31:12;97796.66;;;-2.97;70.74
70921;BME280;58572;48.110;19.838;2023-01-30T05:33:40;97793.84;;;-3.30;70.92
70921;BME280;58572;48.110;19.838;2023-01-30T05:36:13;97845.47;;;-2.57;70.84
70921;BME280;58572;48.110;19.838;2023-01-30T05:38:41;97832.13;;;-2.70;71.62
70921;BME280;58572;48.110;19.838;2023-01-30T05:41:10;97830.94;;;-2.61;70.79
70921;BME280;58572;48.110;19.838;2023-01-30T05:43:37;97835.81;;;-2.71;71.40
70921;BME280;58572;48.110;19.838;2023-01-30T05:46:05;97834.47;;;-3.01;72.56
70921;BME280;58572;48.110;19.838;2023-01-30T05:48:32;97832.81;;;-3.09;71.03
70921;BME280;58572;48.110;19.838;2023-01-30T05:50:59;97791.13;;;-3.02;71.13
70921;BME280;58572;48.110;19.838;2023-01-30T05:53:30;97834.34;;;-2.80;71.48
70921;BME280;58572;48.110;19.838;2023-01-30T05:56:00;97856.22;;;-2.91;71.50
70921;BME280;58572;48.110;19.838;2023-01-30T05:58:27;97835.81;;;-2.71;70.27
70921;BME280;58572;48.110;19.838;2023-01-30T06:00:59;97838.22;;;-2.82;71.99
70921;BME280;58572;48.110;19.838;2023-01-30T06:03:27;97832.66;;;-3.35;70.72
70921;BME280;58572;48.110;19.838;2023-01-30T06:05:54;97841.53;;;-2.74;70.99
70921;BME280;58572;48.110;19.838;2023-01-30T06:08:22;97839.78;;;-3.08;72.38
70921;BME280;58572;48.110;19.838;2023-01-30T06:10:51;97838.94;;;-3.08;72.48
70921;BME280;58572;48.110;19.838;2023-01-30T06:13:18;97834.94;;;-2.84;71.64
70921;BME280;58572;48.110;19.838;2023-01-30T06:15:45;97836.84;;;-2.72;71.22
70921;BME280;58572;48.110;19.838;2023-01-30T06:18:12;97843.88;;;-3.05;71.87
70921;BME280;58572;48.110;19.838;2023-01-30T06:20:39;97834.47;;;-3.01;72.16
70921;BME280;58572;48.110;19.838;2023-01-30T06:23:06;97830.88;;;-2.80;71.08
70921;BME280;58572;48.110;19.838;2023-01-30T06:25:34;97736.38;;;-3.31;70.89
70921;BME280;58572;48.110;19.838;2023-01-30T06:28:02;97820.53;;;-3.10;71.37
70921;BME280;58572;48.110;19.838;2023-01-30T06:30:30;97824.34;;;-2.71;71.12
70921;BME280;58572;48.110;19.838;2023-01-30T06:32:57;97814.28;;;-2.82;72.12
70921;BME280;58572;48.110;19.838;2023-01-30T06:35:24;97815.75;;;-2.67;70.73
70921;BME280;58572;48.110;19.838;2023-01-30T06:37:51;97809.13;;;-2.97;72.74
70921;BME280;58572;48.110;19.838;2023-01-30T06:40:18;97805.03;;;-3.00;72.33
70921;BME280;58572;48.110;19.838;2023-01-30T06:42:46;97754.72;;;-3.01;71.07
70921;BME280;58572;48.110;19.838;2023-01-30T06:45:16;97786.06;;;-2.83;71.71
70921;BME280;58572;48.110;19.838;2023-01-30T06:47:44;97795.69;;;-2.76;71.77
70921;BME280;58572;48.110;19.838;2023-01-30T06:50:12;97801.47;;;-2.59;70.78
70921;BME280;58572;48.110;19.838;2023-01-30T06:52:40;97769.34;;;-3.18;72.06
70921;BME280;58572;48.110;19.838;2023-01-30T06:55:08;97804.41;;;-3.02;72.21
70921;BME280;58572;48.110;19.838;2023-01-30T06:57:35;97805.84;;;-2.99;71.91
70921;BME280;58572;48.110;19.838;2023-01-30T07:00:03;97792.34;;;-2.98;71.45
70921;BME280;58572;48.110;19.838;2023-01-30T07:02:32;97790.50;;;-2.97;73.16
70921;BME280;58572;48.110;19.838;2023-01-30T07:05:00;97794.50;;;-2.53;71.26
70921;BME280;58572;48.110;19.838;2023-01-30T07:07:28;97790.44;;;-2.36;70.40
70921;BME280;58572;48.110;19.838;2023-01-30T07:09:56;97792.88;;;-2.35;70.42
70921;BME280;58572;48.110;19.838;2023-01-30T07:12:23;97671.78;;;-3.31;71.49
70921;BME280;58572;48.110;19.838;2023-01-30T07:14:51;97782.88;;;-3.13;72.96
70921;BME280;58572;48.110;19.838;2023-01-30T07:17:18;97790.63;;;-2.44;70.80
70921;BME280;58572;48.110;19.838;2023-01-30T07:19:46;97792.25;;;-2.43;71.32
70921;BME280;58572;48.110;19.838;2023-01-30T07:22:14;97780.19;;;-2.26;71.06
70921;BME280;58572;48.110;19.838;2023-01-30T07:24:42;97716.69;;;-2.88;71.50
70921;BME280;58572;48.110;19.838;2023-01-30T07:27:10;97541.91;;;-3.80;70.54
70921;BME280;58572;48.110;19.838;2023-01-30T07:29:38;97783.47;;;-2.37;71.30
70921;BME280;58572;48.110;19.838;2023-01-30T07:32:05;97786.53;;;-2.20;71.35
70921;BME280;58572;48.110;19.838;2023-01-30T07:34:33;97790.03;;;-2.20;71.77
70921;BME280;58572;48.110;19.838;2023-01-30T07:37:02;97780.00;;;-2.31;71.97
70921;BME280;58572;48.110;19.838;2023-01-30T07:39:29;97777.31;;;-2.18;71.06
70921;BME280;58572;48.110;19.838;2023-01-30T07:41:56;97776.47;;;-2.65;71.18
70921;BME280;58572;48.110;19.838;2023-01-30T07:44:25;97766.69;;;-2.25;71.42
70921;BME280;58572;48.110;19.838;2023-01-30T07:46:52;97769.97;;;-2.03;71.16
70921;BME280;58572;48.110;19.838;2023-01-30T07:49:20;97712.13;;;-1.69;69.44
70921;BME280;58572;48.110;19.838;2023-01-30T07:51:47;97725.69;;;-1.77;69.18
70921;BME280;58572;48.110;19.838;2023-01-30T07:54:15;97687.25;;;-2.47;71.74
70921;BME280;58572;48.110;19.838;2023-01-30T07:56:42;97762.59;;;-1.94;71.26
70921;BME280;58572;48.110;19.838;2023-01-30T07:59:10;97762.53;;;-1.61;70.80
70921;BME280;58572;48.110;19.838;2023-01-30T08:01:38;97741.59;;;-1.51;70.48
70921;BME280;58572;48.110;19.838;2023-01-30T08:04:05;97732.47;;;-1.88;71.59
70921;BME280;58572;48.110;19.838;2023-01-30T08:06:32;97737.78;;;-2.74;74.59
70921;BME280;58572;48.110;19.838;2023-01-30T08:09:03;97732.25;;;-1.86;71.01
70921;BME280;58572;48.110;19.838;2023-01-30T08:11:32;97719.59;;;-2.04;72.36
70921;BME280;58572;48.110;19.838;2023-01-30T08:13:59;97705.94;;;-1.56;71.02
70921;BME280;58572;48.110;19.838;2023-01-30T08:16:26;97687.38;;;-1.32;70.05
70921;BME280;58572;48.110;19.838;2023-01-30T08:18:56;97701.53;;;-1.89;71.89
70921;BME280;58572;48.110;19.838;2023-01-30T08:21:24;97667.44;;;-1.67;71.40
70921;BME280;58572;48.110;19.838;2023-01-30T08:23:51;97494.41;;;-2.51;71.50
70921;BME280;58572;48.110;19.838;2023-01-30T08:26:18;97671.91;;;-1.61;72.29
70921;BME280;58572;48.110;19.838;2023-01-30T08:28:47;97643.56;;;-2.13;72.20
70921;BME280;58572;48.110;19.838;2023-01-30T08:31:15;97633.09;;;-1.88;72.10
70921;BME280;58572;48.110;19.838;2023-01-30T08:33:42;97667.47;;;-1.80;72.98
70921;BME280;58572;48.110;19.838;2023-01-30T08:36:09;97669.19;;;-1.99;72.44
70921;BME280;58572;48.110;19.838;2023-01-30T08:38:37;97641.69;;;-1.86;72.71
70921;BME280;58572;48.110;19.838;2023-01-30T08:41:05;97667.84;;;-1.70;72.45
70921;BME280;58572;48.110;19.838;2023-01-30T08:43:33;97664.09;;;-1.56;71.37
70921;BME280;58572;48.110;19.838;2023-01-30T08:46:03;97674.75;;;-1.56;71.73
70921;BME280;58572;48.110;19.838;2023-01-30T08:48:30;97723.69;;;-2.41;nan
70921;BME280;58572;48.110;19.838;2023-01-30T08:50:57;97661.84;;;-2.30;74.06
70921;BME280;58572;48.110;19.838;2023-01-30T08:53:24;97675.50;;;-1.36;72.13
70921;BME280;58572;48.110;19.838;2023-01-30T08:55:52;97673.00;;;-1.31;71.86
70921;BME280;58572;48.110;19.838;2023-01-30T08:58:19;97671.59;;;-0.95;71.02
70921;BME280;58572;48.110;19.838;2023-01-30T09:00:46;97680.75;;;-1.67;74.06
70921;BME280;58572;48.110;19.838;2023-01-30T09:03:17;97676.34;;;-0.72;71.00
70921;BME280;58572;48.110;19.838;2023-01-30T09:05:44;97676.94;;;-0.95;70.33
70921;BME280;58572;48.110;19.838;2023-01-30T09:08:11;97676.19;;;-1.15;71.08
70921;BME280;58572;48.110;19.838;2023-01-30T09:10:38;97680.97;;;-1.24;72.70
70921;BME280;58572;48.110;19.838;2023-01-30T09:13:08;97675.63;;;-0.86;71.61
70921;BME280;58572;48.110;19.838;2023-01-30T09:15:35;97676.19;;;-1.15;73.05
70921;BME280;58572;48.110;19.838;2023-01-30T09:18:02;97543.59;;;-2.03;71.94
70921;BME280;58572;48.110;19.838;2023-01-30T09:20:31;97657.25;;;-1.01;72.12
70921;BME280;58572;48.110;19.838;2023-01-30T09:22:58;97643.84;;;-0.62;70.48
70921;BME280;58572;48.110;19.838;2023-01-30T09:25:25;97645.94;;;-0.96;71.75
70921;BME280;58572;48.110;19.838;2023-01-30T09:27:53;97634.56;;;-0.35;70.53
70921;BME280;58572;48.110;19.838;2023-01-30T09:30:20;97633.69;;;-0.29;69.86
70921;BME280;58572;48.110;19.838;2023-01-30T09:32:48;97637.13;;;-1.35;72.91
70921;BME280;58572;48.110;19.838;2023-01-30T09:35:17;97598.78;;;-1.02;71.95
70921;BME280;58572;48.110;19.838;2023-01-30T09:37:49;97596.28;;;-1.29;73.12
70921;BME280;58572;48.110;19.838;2023-01-30T09:40:20;97584.91;;;-0.86;71.78
70921;BME280;58572;48.110;19.838;2023-01-30T09:43:11;97590.44;;;-0.19;71.01
70921;BME280;58572;48.110;19.838;2023-01-30T09:45:56;97589.75;;;-0.33;71.58
70921;BME280;58572;48.110;19.838;2023-01-30T09:48:29;97580.72;;;-0.75;72.38
70921;BME280;58572;48.110;19.838;2023-01-30T09:54:09;97573.72;;;-0.51;71.83
70921;BME280;58572;48.110;19.838;2023-01-30T09:56:42;97567.81;;;-0.35;72.55
70921;BME280;58572;48.110;19.838;2023-01-30T09:59:17;97575.81;;;-0.35;70.92
70921;BME280;58572;48.110;19.838;2023-01-30T10:01:52;97563.19;;;-0.46;72.53
70921;BME280;58572;48.110;19.838;2023-01-30T10:04:26;97484.63;;;-1.18;71.43
70921;BME280;58572;48.110;19.838;2023-01-30T10:07:03;97567.50;;;-0.09;71.13
70921;BME280;58572;48.110;19.838;2023-01-30T10:09:40;97560.31;;;-0.26;71.10
70921;BME280;58572;48.110;19.838;2023-01-30T10:12:25;97554.88;;;-0.02;71.49
70921;BME280;58572;48.110;19.838;2023-01-30T10:15:04;97557.72;;;-0.15;71.38
70921;BME280;58572;48.110;19.838;2023-01-30T10:17:42;97555.97;;;-0.64;72.33
70921;BME280;58572;48.110;19.838;2023-01-30T10:20:24;97553.78;;;-0.12;71.74
70921;BME280;58572;48.110;19.838;2023-01-30T10:23:02;97534.72;;;0.03;69.70
70921;BME280;58572;48.110;19.838;2023-01-30T10:25:34;97530.84;;;0.17;70.76
70921;BME280;58572;48.110;19.838;2023-01-30T10:28:09;97527.22;;;0.41;69.64
70921;BME280;58572;48.110;19.838;2023-01-30T10:30:38;97529.47;;;-1.09;73.74
70921;BME280;58572;48.110;19.838;2023-01-30T10:33:09;97514.63;;;-0.37;71.80
70921;BME280;58572;48.110;19.838;2023-01-30T10:35:41;97507.41;;;0.30;69.89
70921;BME280;58572;48.110;19.838;2023-01-30T10:38:14;97507.84;;;-0.03;70.24
70921;BME280;58572;48.110;19.838;2023-01-30T10:40:50;97507.28;;;-0.41;71.32
70921;BME280;58572;48.110;19.838;2023-01-30T10:43:23;97488.03;;;0.35;69.66
70921;BME280;58572;48.110;19.838;2023-01-30T10:46:00;97481.00;;;0.22;69.73
70921;BME280;58572;48.110;19.838;2023-01-30T10:48:48;97479.78;;;-0.12;70.93
70921;BME280;58572;48.110;19.838;2023-01-30T10:51:23;97475.38;;;0.12;71.40
70921;BME280;58572;48.110;19.838;2023-01-30T10:53:55;97469.94;;;-0.29;72.56
70921;BME280;58572;48.110;19.838;2023-01-30T10:56:31;97464.94;;;0.52;71.00
70921;BME280;58572;48.110;19.838;2023-01-30T10:59:06;97461.81;;;-0.05;71.81
70921;BME280;58572;48.110;19.838;2023-01-30T11:01:42;97460.84;;;0.08;71.47
70921;BME280;58572;48.110;19.838;2023-01-30T11:04:17;97458.53;;;0.12;71.00
70921;BME280;58572;48.110;19.838;2023-01-30T11:06:45;97448.66;;;0.66;69.34
70921;BME280;58572;48.110;19.838;2023-01-30T11:09:12;97456.31;;;0.50;70.06
70921;BME280;58572;48.110;19.838;2023-01-30T11:11:48;97380.06;;;0.59;68.80
70921;BME280;58572;48.110;19.838;2023-01-30T11:14:15;97444.22;;;0.48;70.22
70921;BME280;58572;48.110;19.838;2023-01-30T11:16:45;97404.44;;;-0.32;71.57
70921;BME280;58572;48.110;19.838;2023-01-30T11:19:13;97432.13;;;0.04;71.91
70921;BME280;58572;48.110;19.838;2023-01-30T11:21:47;97429.41;;;0.22;71.35
70921;BME280;58572;48.110;19.838;2023-01-30T11:24:18;97427.38;;;0.47;70.57
70921;BME280;58572;48.110;19.838;2023-01-30T11:26:48;97418.38;;;0.30;71.15
70921;BME280;58572;48.110;19.838;2023-01-30T11:29:31;97332.75;;;-0.17;70.93
70921;BME280;58572;48.110;19.838;2023-01-30T11:32:02;97296.56;;;0.11;69.46
70921;BME280;58572;48.110;19.838;2023-01-30T11:34:29;97315.06;;;-0.29;71.23
70921;BME280;58572;48.110;19.838;2023-01-30T11:37:12;97385.28;;;0.43;70.64
70921;BME280;58572;48.110;19.838;2023-01-30T11:39:48;97384.81;;;0.34;71.11
70921;BME280;58572;48.110;19.838;2023-01-30T11:42:19;97380.59;;;-0.15;72.22
70921;BME280;58572;48.110;19.838;2023-01-30T11:44:46;97383.97;;;0.22;71.38
70921;BME280;58572;48.110;19.838;2023-01-30T11:47:23;97376.84;;;0.04;71.94
70921;BME280;58572;48.110;19.838;2023-01-30T11:49:53;97293.09;;;0.10;70.33
70921;BME280;58572;48.110;19.838;2023-01-30T11:52:24;97362.16;;;0.72;69.80
70921;BME280;58572;48.110;19.838;2023-01-30T11:54:54;97348.88;;;0.30;71.08
70921;BME280;58572;48.110;19.838;2023-01-30T11:57:28;97343.75;;;0.17;71.46
70921;BME280;58572;48.110;19.838;2023-01-30T11:59:57;97340.75;;;0.48;70.56
70921;BME280;58572;48.110;19.838;2023-01-30T12:02:28;97342.25;;;0.44;70.64
70921;BME280;58572;48.110;19.838;2023-01-30T12:05:01;97341.69;;;0.42;70.61
70921;BME280;58572;48.110;19.838;2023-01-30T12:07:30;97311.44;;;0.53;70.52
70921;BME280;58572;48.110;19.838;2023-01-30T12:09:58;97305.75;;;0.38;70.50
70921;BME280;58572;48.110;19.838;2023-01-30T12:12:28;97309.25;;;0.50;71.39
70921;BME280;58572;48.110;19.838;2023-01-30T12:15:02;97314.72;;;0.55;70.85
70921;BME280;58572;48.110;19.838;2023-01-30T12:17:36;97299.78;;;0.83;69.73
70921;BME280;58572;48.110;19.838;2023-01-30T12:20:16;97306.56;;;0.39;71.19
70921;BME280;58572;48.110;19.838;2023-01-30T12:22:52;97280.06;;;0.37;71.22
70921;BME280;58572;48.110;19.838;2023-01-30T12:25:26;97285.03;;;0.80;69.52
70921;BME280;58572;48.110;19.838;2023-01-30T12:28:00;97217.56;;;-0.74;72.29
70921;BME280;58572;48.110;19.838;2023-01-30T12:30:34;97278.56;;;0.06;72.84
70921;BME280;58572;48.110;19.838;2023-01-30T12:33:05;97274.72;;;0.37;71.33
70921;BME280;58572;48.110;19.838;2023-01-30T12:35:48;97254.16;;;0.38;71.86
70921;BME280;58572;48.110;19.838;2023-01-30T12:38:28;97259.34;;;0.68;71.00
70921;BME280;58572;48.110;19.838;2023-01-30T12:41:06;97147.03;;;-0.08;71.17
70921;BME280;58572;48.110;19.838;2023-01-30T12:44:11;97258.00;;;0.07;73.34
70921;BME280;58572;48.110;19.838;2023-01-30T12:46:52;97249.88;;;0.02;73.13
70921;BME280;58572;48.110;19.838;2023-01-30T12:49:45;97254.66;;;0.75;71.02
70921;BME280;58572;48.110;19.838;2023-01-30T12:55:25;97259.75;;;0.24;72.07
70921;BME280;58572;48.110;19.838;2023-01-30T12:58:00;97247.22;;;0.77;70.49
70921;BME280;58572;48.110;19.838;2023-01-30T13:00:53;97263.84;;;0.79;70.75
70921;BME280;58572;48.110;19.838;2023-01-30T13:03:29;97259.69;;;0.59;71.48
70921;BME280;58572;48.110;19.838;2023-01-30T13:06:07;97271.41;;;0.82;71.01
70921;BME280;58572;48.110;19.838;2023-01-30T13:08:46;97278.88;;;0.68;71.22
70921;BME280;58572;48.110;19.838;2023-01-30T13:11:44;97274.84;;;0.30;72.23
70921;BME280;58572;48.110;19.838;2023-01-30T13:14:21;97277.41;;;0.37;71.98
70921;BME280;58572;48.110;19.838;2023-01-30T13:17:23;97153.44;;;-0.32;71.72
70921;BME280;58572;48.110;19.838;2023-01-30T13:19:58;97267.41;;;0.44;72.02